Orlando, Florida
Traffic Map
Current Weather Conditions
Orlando, Florida
Scattered Clouds
Scattered Clouds
86°
Feels Like: 87°
Wind Chill: 86° Ceiling: Unl
Heat Index: 87° Visibility: 10mi
Dew Point: 64° Wind: 10mph
Humidity: 48% Direction: 240° (WSW)
Pressure: 30.05in Gusts: 0mph
Raw Report DataKORL 051953Z 24009KT 10SM SCT070 30/18 A3005 RMK AO2 SLP180 T03000178
Traffic Incident Summary
Active as of:
Severity:
Category:
InformationThere was an issue retrieving the traffic information for this location. Please try a different location or try again shortly.
Advertisements
Track Severe Weather on mobile